Flugplatz - Wetter - Augsburg

[Quelle: ADDS]
METAR
WX-Data not avlb.
(due to wrong input of icao-codes or 'allow_url_fopen' is OFF [1] and cURL not enabled [1] on this server!)
TAF
SR / SS: 04:19 / 18:22 UTC (Augsburg 2018-08-20)

Flugplatz - Wetter - Laupheim

[Quelle: ADDS]
METAR
ETHL 200420Z VRB01KT 9999 SCT060 16/12 Q1021 BLACKBLU+BLU+ =
TAF
SR / SS: 04:23 / 18:26 UTC (Laupheim 2018-08-20)

Flugplatz - Wetter - Memmingen

[Quelle: ADDS]
METAR
EDJA 200420Z 19003KT 9999 SCT061 14/13 Q1021 =
TAF
SR / SS: 04:22 / 18:22 UTC (Memmingen 2018-08-20)

Flugplatz - Wetter - Neuburg/Donau

[Quelle: ADDS]
METAR
ETSN 200420Z 27005KT 9999 FEW070 SCT100 18/13 Q1020 BLU+BLU+ =
TAF
ETSN 200100Z 2002/2011 VRB03KT 9999 NSW SCT090 BY ETGL =
SR / SS: 04:16 / 18:20 UTC (Neuburg 2018-08-20)

Flugplatz - Wetter - Stuttgart

[Quelle: ADDS]
METAR
EDDS 200420Z VRB02KT CAVOK 17/12 Q1020 NOSIG =
TAF
EDDS 192300Z 2000/2024 29004KT CAVOK BECMG 2011/2014 32010KT BECMG 2018/2021 29004KT =
SR / SS: 04:24 / 18:28 UTC (Stuttgart 2018-08-20)

Flugplatz - Wetter - Niederstetten

[Quelle: ADDS]
METAR
ETHN 200420Z 22004KT 9999 FEW050 16/12 Q1020 BLU+BLU+ =
TAF
SR / SS: 04:21 / 18:28 UTC (Niederstetten 2018-08-20)